Pagina principale
METAR-TAF:

METAR-TAF

Aeroporti :

Selebi-Phikwe, Botswana

latitudine: 22-03-19S, longitudine: 027-49-13E, altezza: 892 m

Osservazione

Il bollettino è stato emesso 57 minuti fa, alle 05:00 UTC
Vento 5 kt da est
Temperature 28°C
Umidità 55%
Pressione 1012 hPa
Visibilità 10 km o più
nessuna nube inferiore a 1500 m e nessun cumulonembo

METAR: FBSP 180500Z 09005KT CAVOK 28/18 Q1012

Ora: 07:57 (05:57 UTC)

Previsione

Il bollettino è stato emesso 2 ore e 57 minuti fa, alle 03:00 UTC
Previsione valida dal 18 alle 06 UTC al 18 alle 15 UTC
Vento 10 kt da nord/nord-est
Visibilità 10 km o più
nessuna nube inferiore a 1500 m e nessun cumulonembo

TAF: FBSP 180300Z 1806/1815 02010KT CAVOK

Osservazioni e previsioni meteorologiche di più di 4000 aeroporti (messaggi METAR e TAF).

Le stazioni disponibili sono rappresentate dai dischi gialli e rossi sulla carta.

Puntare il mouse per vedere il nome della stazione.

Clicca sopra per visualizzare le osservazioni e previsioni meteorologiche.

Per cambiare la mappa : fare clic sui pulsanti verdi con una croce nera per ingrandire, il pulsante verde con un trattino per diminuire, o sulla freccia verde per le mappe adiacenti.


METAR-TAF: